• Join FlightAware (Why Join?)
  • Login
  • US Flag 
06:29AM EDT


 

Airport Tracker/Info


-or-


 

Live Flight TrackerFlight Track Log ✈ PDT4226 ✈ 23-Jan-2014 ✈ KPHL - KBGM

Flight Track Log - Related Links

Times and Time Zones

All times are in EST time to prevent confusion due to time zone crossing. See the PDT4226 flight status page for this flight to view local times or setup timezone preferences in your user account.

Time Position Orientation Groundspeed Altitude Reporting Facility
EST Latitude Longitude Course Direction KTS MPH feet Rate Location/Type
11:50AM 39.9000 -75.2333 311° West 122 140 600  Level Philadelphia TRACON
11:51AM 39.9000 -75.2833 270° West 136 157 2,100 1,680 Climbing Philadelphia TRACON
11:52AM 39.9167 -75.3167 303° West 127 146 3,800 1,560 Climbing Philadelphia TRACON
11:53AM 40.0524 -75.2960 303° West  Level Estimated
11:53AM 39.9167 -75.3667 270° West 129 148 5,100  Level Philadelphia TRACON
11:54AM 40.1125 -75.3144 330° Northwest  Level Estimated
11:54AM 39.9333 -75.4167 294° West 129 148 6,700  Level Philadelphia TRACON
11:55AM 40.1434 -75.3842 300° West  Level FlightAware Approximate
11:55AM 39.9667 -75.4333 339° North 151 174 8,300  Level Philadelphia TRACON
11:56AM 40.2038 -75.4010 311° West  Level Estimated
11:56AM 40.0000 -75.4500 339° North 157 181 9,000  Level Philadelphia TRACON
11:57AM 40.0500 -75.4833 333° Northwest 206 237 9,300 420 Climbing Philadelphia TRACON
11:58AM 40.1017 -75.5092 339° North 193 222 10,000 360 Climbing New York Center
11:59AM 40.1589 -75.5375 339° North 210 242 10,100  Climbing New York Center
12:00PM 40.2125 -75.5547 346° North 217 250 10,000 -60 Descending New York Center
12:01PM 40.2581 -75.6094 317° Northwest 211 243 10,000  Level New York Center
12:02PM 40.2911 -75.6717 305° West 205 236 10,000  Level New York Center
12:03PM 40.3303 -75.7289 312° West 210 242 10,000  Level New York Center
12:04PM 40.3681 -75.7753 317° Northwest 210 242 10,000  Level New York Center
12:05PM 40.4283 -75.7769 359° North 196 226 10,000  Level New York Center
12:06PM 40.4967 -75.7900 352° North 217 250 10,000  Level New York Center
12:07PM 40.5589 -75.7919 359° North 217 250 10,000  Level New York Center
12:08PM 40.6217 -75.7883 North 222 255 10,000  Level New York Center
12:09PM 40.6775 -75.8006 351° North 217 250 10,000  Level New York Center
12:10PM 40.7392 -75.8161 349° North 217 250 10,000  Level New York Center
12:11PM 40.8058 -75.8183 359° North 217 250 10,000  Level New York Center
12:12PM 40.8681 -75.8256 355° North 217 250 10,000  Level New York Center
12:13PM 40.9281 -75.8383 351° North 217 250 10,000  Level New York Center
12:14PM 40.9817 -75.8506 350° North 217 250 10,000 -60 Level New York Center
12:15PM 41.0458 -75.8581 355° North 217 250 9,900  Descending New York Center
12:16PM 41.1061 -75.8597 359° North 217 250 10,000  Climbing New York Center
12:17PM 41.1725 -75.8675 355° North 217 250 10,000  Level New York Center
12:18PM 41.2325 -75.8775 353° North 217 250 10,000 -60 Level New York Center
12:19PM 41.2903 -75.8875 353° North 217 250 9,900  Descending New York Center
12:20PM 41.3528 -75.8867 North 217 250 10,000  Climbing New York Center
12:21PM 41.4153 -75.8914 357° North 217 250 9,900 -420 Descending New York Center
12:22PM 41.4772 -75.9044 351° North 217 250 9,200 -840 Descending New York Center
12:23PM 41.5414 -75.9122 355° North 223 257 8,300 -600 Descending New York Center
12:24PM 41.6058 -75.9144 359° North 223 257 8,000 -180 Descending New York Center
12:25PM 41.6556 -75.9208 355° North 216 249 8,000  Level New York Center
12:26PM 41.7136 -75.9256 357° North 209 241 8,000 -120 Level New York Center
12:27PM 41.7736 -75.9328 355° North 204 235 7,800 -660 Descending New York Center
12:28PM 41.8317 -75.9403 355° North 199 229 6,700 -1,020 Descending New York Center
12:29PM 41.8833 -75.9497 352° North 194 223 5,800 -900 Descending New York Center
12:30PM 41.9292 -75.9506 359° North 188 216 5,000 -720 Descending New York Center
12:31PM 41.9872 -75.9550 357° North 188 216 4,400 -480 Descending New York Center
12:32PM 42.0350 -75.9589 357° North 188 216 4,100 -420 Descending New York Center
12:33PM 42.0850 -75.9544 North 182 209 3,600 -420 Descending New York Center
12:34PM 42.1231 -75.9433 12° North 163 188 3,300 -420 Descending New York Center
12:35PM 42.1583 -75.9433 360° North 141 162 2,800 -540 Descending New York Center